Time;durP1;ratioP1;P1;durP2;ratioP2;P2;SDS_P1;SDS_P2;PMS_P1;PMS_P2;Temp;Humidity;BMP_temperature;BMP_pressure;BME280_temperature;BME280_humidity;BME280_pressure;Samples;Min_cycle;Max_cycle;Signal;HPM_P1;HPM_P2
2021/07/27 00:01:19;;;;;;;1.27;1.17;;;;;;;19.16;83.41;99999.44;5010671;28;20204;-71
2021/07/27 00:03:45;;;;;;;0.90;0.90;;;;;;;19.20;82.82;99996.72;5011078;28;20172;-72
2021/07/27 00:06:11;;;;;;;1.47;1.37;;;;;;;19.18;83.07;99990.75;5010982;28;20264;-72
2021/07/27 00:08:37;;;;;;;1.43;1.33;;;;;;;19.16;83.67;99995.88;5010773;28;20513;-72
2021/07/27 00:11:05;;;;;;;1.10;1.00;;;;;;;19.16;83.45;99991.13;5010778;28;20169;-71
2021/07/27 00:13:32;;;;;;;0.60;0.60;;;;;;;19.20;83.12;100005.03;5009625;28;20283;-71
2021/07/27 00:15:57;;;;;;;1.20;1.10;;;;;;;19.33;82.24;99989.72;5010568;28;20192;-71
2021/07/27 00:18:22;;;;;;;0.70;0.57;;;;;;;19.40;82.28;99987.03;5010903;28;20176;-72
2021/07/27 00:20:48;;;;;;;4.43;1.40;;;;;;;19.40;82.86;99997.31;5010663;28;20203;-72
2021/07/27 00:23:14;;;;;;;1.27;1.17;;;;;;;19.36;82.85;99999.22;5010483;28;20264;-71
2021/07/27 00:25:40;;;;;;;0.83;0.83;;;;;;;19.32;83.01;99999.22;5010847;28;20573;-72
2021/07/27 00:28:06;;;;;;;1.27;1.00;;;;;;;19.33;82.80;99998.81;5011370;28;20176;-71
2021/07/27 00:30:31;;;;;;;1.47;1.33;;;;;;;19.35;82.92;99998.44;5014266;28;20523;-71
2021/07/27 00:32:56;;;;;;;1.30;1.20;;;;;;;19.34;83.08;99994.06;5014052;28;20172;-72
2021/07/27 00:35:22;;;;;;;0.77;0.57;;;;;;;19.28;83.71;100001.16;5014207;28;20180;-72
2021/07/27 00:37:58;;;;;;;0.83;0.83;;;;;;;19.21;83.61;99988.03;5014109;28;20676;-72
2021/07/27 00:40:23;;;;;;;0.80;0.80;;;;;;;19.15;84.30;99983.22;5013912;28;20187;-72
2021/07/27 00:42:49;;;;;;;1.13;1.03;;;;;;;19.09;85.06;99990.25;5013848;28;20172;-71
2021/07/27 00:45:15;;;;;;;0.90;0.87;;;;;;;19.00;85.42;99991.38;5014216;28;20521;-72
2021/07/27 00:47:42;;;;;;;1.00;1.00;;;;;;;18.94;86.23;99997.63;5013847;28;20252;-71
2021/07/27 00:50:09;;;;;;;0.73;0.73;;;;;;;18.89;86.53;99987.69;5014076;28;20180;-71
2021/07/27 00:52:36;;;;;;;0.77;0.77;;;;;;;18.86;86.82;99984.88;5013611;28;20187;-71
2021/07/27 00:55:02;;;;;;;1.40;1.30;;;;;;;18.78;87.32;99988.72;5014192;28;20172;-72
2021/07/27 00:57:30;;;;;;;1.53;1.00;;;;;;;18.75;87.59;99997.78;5013659;28;20172;-72
2021/07/27 00:59:55;;;;;;;1.50;1.30;;;;;;;18.70;87.60;99991.44;5013556;28;20268;-71
2021/07/27 01:02:21;;;;;;;1.07;0.77;;;;;;;18.68;87.93;99993.00;5013405;28;20302;-72
2021/07/27 01:04:46;;;;;;;2.80;1.03;;;;;;;18.65;88.00;99991.75;5013624;28;20255;-71
2021/07/27 01:07:12;;;;;;;1.20;1.13;;;;;;;18.60;88.37;100002.34;5013609;28;20694;-72
2021/07/27 01:09:37;;;;;;;0.70;0.70;;;;;;;18.54;88.61;99990.81;5013471;28;20183;-72
2021/07/27 01:12:03;;;;;;;1.23;1.13;;;;;;;18.56;88.82;99995.97;5013319;28;20176;-72
2021/07/27 01:14:28;;;;;;;0.90;0.90;;;;;;;18.54;89.02;99992.78;5013307;28;20165;-72
2021/07/27 01:16:54;;;;;;;1.30;1.20;;;;;;;18.54;89.25;99993.56;5013295;28;20558;-71
2021/07/27 01:19:40;;;;;;;1.40;1.30;;;;;;;18.54;89.21;99996.34;5013339;28;20272;-72
2021/07/27 01:43:43;;;;;;;1.60;1.50;;;;;;;18.21;92.77;99997.06;5012863;28;20177;-72
2021/07/27 01:46:10;;;;;;;1.50;1.40;;;;;;;18.22;92.66;99992.34;5013151;28;20231;-71
2021/07/27 01:48:37;;;;;;;2.57;1.20;;;;;;;18.22;93.25;99998.66;5012748;28;20718;-72
2021/07/27 01:51:05;;;;;;;1.57;1.37;;;;;;;18.19;93.60;99993.09;5012814;28;20173;-72
2021/07/27 01:53:46;;;;;;;1.27;1.17;;;;;;;18.18;94.02;100002.56;5012530;28;20307;-72
2021/07/27 01:56:12;;;;;;;2.60;1.20;;;;;;;18.14;94.33;99992.25;5012822;28;20157;-72
2021/07/27 01:58:37;;;;;;;1.63;1.53;;;;;;;18.09;95.24;100000.88;5012650;28;20169;-72
2021/07/27 02:01:02;;;;;;;1.30;1.20;;;;;;;18.09;94.85;99997.31;5012493;28;20210;-72
2021/07/27 02:03:28;;;;;;;1.77;1.67;;;;;;;18.09;94.92;99995.34;5012474;28;20628;-72
2021/07/27 02:05:53;;;;;;;1.90;1.80;;;;;;;18.09;95.55;100000.09;5012550;28;20176;-72
2021/07/27 02:08:19;;;;;;;1.80;1.70;;;;;;;18.10;95.43;100004.44;5012659;28;20180;-72
2021/07/27 02:10:49;;;;;;;1.63;1.30;;;;;;;18.08;95.87;99995.69;5012283;28;20275;-72
2021/07/27 02:13:24;;;;;;;1.77;1.27;;;;;;;18.04;96.25;100006.69;5012294;28;20640;-72
2021/07/27 02:15:49;;;;;;;1.90;1.70;;;;;;;18.07;96.03;100002.41;5012248;28;20648;-72
2021/07/27 02:18:14;;;;;;;2.30;1.80;;;;;;;18.08;95.84;99996.53;5012200;28;20208;-72
2021/07/27 02:20:48;;;;;;;2.60;1.93;;;;;;;18.13;95.99;99998.16;5012062;28;20210;-72
2021/07/27 02:23:14;;;;;;;2.50;1.53;;;;;;;18.12;95.67;99991.81;5012394;28;20608;-73
2021/07/27 02:25:39;;;;;;;1.60;1.50;;;;;;;18.16;96.21;100000.16;5012218;28;20199;-72
2021/07/27 02:28:06;;;;;;;1.43;1.33;;;;;;;18.13;95.46;99998.16;5011994;28;20260;-71
2021/07/27 02:30:39;;;;;;;1.23;1.13;;;;;;;18.07;95.86;99997.66;5011983;28;20191;-72
2021/07/27 02:33:04;;;;;;;1.70;1.60;;;;;;;18.03;95.81;99996.81;5011751;28;20283;-72
2021/07/27 02:35:29;;;;;;;2.33;1.83;;;;;;;18.05;95.91;100001.97;5011898;28;20707;-72
2021/07/27 02:37:55;;;;;;;2.10;1.50;;;;;;;18.03;95.94;100007.06;5010660;28;20173;-72
2021/07/27 02:40:20;;;;;;;1.60;1.47;;;;;;;18.00;95.96;100005.88;5011913;28;20263;-72
2021/07/27 02:42:48;;;;;;;1.53;1.40;;;;;;;17.98;96.17;100010.97;5011892;28;20566;-71
2021/07/27 02:45:14;;;;;;;1.53;1.40;;;;;;;17.95;96.72;100005.41;5011804;28;20168;-72
2021/07/27 02:47:40;;;;;;;2.43;1.70;;;;;;;17.93;96.65;100013.22;5011690;28;20180;-72
2021/07/27 02:50:07;;;;;;;1.63;1.53;;;;;;;17.91;96.91;100007.28;5011616;28;20188;-71
2021/07/27 02:52:33;;;;;;;1.50;1.40;;;;;;;17.90;97.13;100011.22;5011424;28;20176;-72
2021/07/27 02:54:58;;;;;;;2.00;1.77;;;;;;;17.89;97.51;100015.16;5011940;28;20169;-72
2021/07/27 02:57:23;;;;;;;2.00;1.20;;;;;;;17.87;97.05;100014.72;5011796;28;20263;-71
2021/07/27 02:59:49;;;;;;;1.67;1.57;;;;;;;17.90;96.73;100013.97;5011488;28;20276;-71
2021/07/27 03:02:23;;;;;;;2.13;1.93;;;;;;;17.92;96.65;100015.19;5010116;28;20562;-72
2021/07/27 03:04:48;;;;;;;2.07;1.87;;;;;;;17.94;96.43;100012.88;5011714;28;20531;-72
2021/07/27 03:07:19;;;;;;;1.63;1.47;;;;;;;17.98;96.36;100018.47;5011636;28;20180;-72
2021/07/27 03:12:28;;;;;;;1.87;1.70;;;;;;;18.01;95.49;100012.19;5011492;28;20638;-72
2021/07/27 03:15:00;;;;;;;2.03;1.93;;;;;;;18.02;95.53;100011.81;5011453;28;20285;-71
2021/07/27 03:17:26;;;;;;;1.80;1.70;;;;;;;18.02;95.35;100014.56;5011340;28;20169;-71
2021/07/27 03:20:03;;;;;;;1.73;1.63;;;;;;;18.04;95.27;100023.28;5011300;28;20172;-72
2021/07/27 03:22:29;;;;;;;2.13;1.90;;;;;;;18.03;95.28;100026.44;5011370;28;20204;-72
2021/07/27 03:24:54;;;;;;;1.77;1.67;;;;;;;17.99;95.36;100023.63;5011499;28;20707;-72
2021/07/27 03:27:19;;;;;;;1.73;1.63;;;;;;;17.98;95.44;100026.75;5011085;28;20184;-72
2021/07/27 03:29:44;;;;;;;2.40;2.20;;;;;;;17.95;95.58;100028.31;5011238;28;20177;-72
2021/07/27 03:32:10;;;;;;;1.97;1.87;;;;;;;17.96;96.08;100034.63;5011034;28;20192;-72
2021/07/27 03:34:35;;;;;;;2.20;2.10;;;;;;;17.94;96.59;100029.47;5011179;28;20200;-72
2021/07/27 03:37:00;;;;;;;1.60;1.47;;;;;;;17.89;96.72;100029.78;5011054;28;20177;-72
2021/07/27 03:39:26;;;;;;;2.20;2.00;;;;;;;17.88;96.46;100038.44;5011110;28;20180;-72
2021/07/27 03:41:51;;;;;;;1.83;1.67;;;;;;;17.87;96.75;100031.31;5010967;28;20232;-72
2021/07/27 03:44:17;;;;;;;1.90;1.80;;;;;;;17.83;96.99;100039.56;5011068;28;20677;-72
2021/07/27 03:46:45;;;;;;;2.63;2.03;;;;;;;17.78;96.74;100045.38;5011016;28;20184;-72
2021/07/27 03:49:10;;;;;;;1.90;1.70;;;;;;;17.77;97.23;100038.25;5026163;28;20181;-72
2021/07/27 03:51:36;;;;;;;2.80;2.07;;;;;;;17.71;98.08;100040.53;5010836;28;20177;-72
2021/07/27 03:54:01;;;;;;;1.50;1.40;;;;;;;17.65;98.24;100039.25;5010958;28;20311;-72
2021/07/27 03:56:27;;;;;;;1.57;1.47;;;;;;;17.61;98.44;100045.84;5010926;28;20239;-72
2021/07/27 03:58:52;;;;;;;3.07;2.77;;;;;;;17.59;98.12;100056.47;5010783;28;20195;-72
2021/07/27 04:01:17;;;;;;;2.00;1.77;;;;;;;17.56;98.11;100049.72;5010537;28;20208;-72
2021/07/27 04:03:42;;;;;;;1.97;1.80;;;;;;;17.55;98.54;100059.19;5012246;28;20185;-72
2021/07/27 04:06:08;;;;;;;1.80;1.70;;;;;;;17.53;98.54;100056.78;5015064;28;20614;-72
2021/07/27 04:08:33;;;;;;;1.93;1.77;;;;;;;17.56;98.48;100058.00;5014613;28;20211;-72
2021/07/27 04:11:03;;;;;;;2.27;2.10;;;;;;;17.56;98.66;100060.78;5014721;28;20255;-72
2021/07/27 04:13:30;;;;;;;2.37;1.90;;;;;;;17.55;99.09;100056.41;5014511;28;20177;-72
2021/07/27 04:15:58;;;;;;;2.30;2.00;;;;;;;17.53;99.06;100059.56;5014460;28;20188;-72
2021/07/27 04:18:23;;;;;;;2.20;2.10;;;;;;;17.52;99.28;100063.47;5014515;28;20532;-72
2021/07/27 04:20:48;;;;;;;3.87;2.20;;;;;;;17.50;99.65;100065.00;5014345;28;20196;-72
2021/07/27 04:23:14;;;;;;;2.00;1.87;;;;;;;17.49;99.53;100060.63;5014461;28;20204;-72
2021/07/27 04:25:39;;;;;;;1.93;1.83;;;;;;;17.47;99.78;100060.19;5014397;28;20177;-72
2021/07/27 04:28:04;;;;;;;2.00;1.80;;;;;;;17.45;100.00;100059.78;5014389;28;20180;-72
2021/07/27 04:30:33;;;;;;;2.27;2.07;;;;;;;17.41;100.00;100062.47;5015398;28;20185;-71
2021/07/27 04:32:58;;;;;;;4.50;1.90;;;;;;;17.40;100.00;100058.13;5016071;28;20184;-72
2021/07/27 04:35:23;;;;;;;3.13;2.07;;;;;;;17.39;100.00;100064.81;5014214;28;20243;-74
2021/07/27 04:37:51;;;;;;;2.30;2.10;;;;;;;17.37;100.00;100064.38;5014177;28;20208;-72
2021/07/27 04:40:17;;;;;;;2.13;1.87;;;;;;;17.37;100.00;100060.81;5014011;28;20179;-72
2021/07/27 04:42:42;;;;;;;2.00;1.90;;;;;;;17.37;100.00;100067.16;5013853;28;20208;-72
2021/07/27 04:45:08;;;;;;;2.50;1.90;;;;;;;17.34;100.00;100062.34;5013946;28;20173;-78
2021/07/27 04:47:33;;;;;;;1.90;1.80;;;;;;;17.34;100.00;100061.53;5013761;28;20176;-72
2021/07/27 04:49:58;;;;;;;2.27;1.93;;;;;;;17.36;100.00;100053.69;5013888;28;20168;-71
2021/07/27 04:52:24;;;;;;;2.30;2.10;;;;;;;17.38;100.00;100054.13;5013621;28;20259;-71
2021/07/27 04:54:52;;;;;;;2.30;2.10;;;;;;;17.42;100.00;100061.31;5013808;28;20675;-73
2021/07/27 04:57:18;;;;;;;2.43;2.10;;;;;;;17.51;100.00;100059.13;5013834;28;20196;-73
2021/07/27 04:59:43;;;;;;;1.73;1.57;;;;;;;17.63;100.00;100060.88;5013775;28;20199;-73
2021/07/27 05:02:11;;;;;;;1.80;1.70;;;;;;;17.72;99.60;100058.72;5013457;28;20589;-72
2021/07/27 05:04:36;;;;;;;2.90;1.77;;;;;;;17.77;99.34;100060.38;5013671;28;20196;-73
2021/07/27 05:07:04;;;;;;;3.93;2.00;;;;;;;17.77;99.52;100058.41;5013415;28;20266;-73
2021/07/27 05:09:30;;;;;;;2.17;1.90;;;;;;;17.76;99.49;100062.31;5013662;28;20320;-73
2021/07/27 05:11:56;;;;;;;3.33;2.67;;;;;;;17.75;100.00;100069.03;5013246;28;20687;-72
2021/07/27 05:14:21;;;;;;;2.30;2.10;;;;;;;17.78;99.76;100070.25;5012858;28;20164;-73
2021/07/27 05:16:47;;;;;;;2.30;2.10;;;;;;;17.86;99.10;100062.88;5012746;28;20545;-73
2021/07/27 05:19:12;;;;;;;2.20;2.00;;;;;;;17.94;98.76;100054.34;5013379;28;20169;-72
2021/07/27 05:21:37;;;;;;;2.03;1.93;;;;;;;18.05;98.69;100055.28;5013172;28;20192;-73
2021/07/27 05:24:03;;;;;;;2.30;2.10;;;;;;;18.18;98.12;100061.41;5013247;28;20646;-73
2021/07/27 05:26:29;;;;;;;2.33;1.80;;;;;;;18.32;97.49;100060.84;5013131;28;20479;-73
2021/07/27 05:28:54;;;;;;;1.97;1.87;;;;;;;18.44;96.30;100058.66;5013118;28;20179;-73
2021/07/27 05:31:22;;;;;;;2.50;2.10;;;;;;;18.52;95.51;100058.75;5013136;28;20651;-73
2021/07/27 05:33:47;;;;;;;1.80;1.60;;;;;;;18.64;95.35;100061.31;5013037;28;20172;-73
2021/07/27 05:36:13;;;;;;;2.10;2.00;;;;;;;18.75;94.71;100058.69;5013046;28;20176;-73
2021/07/27 05:38:38;;;;;;;2.53;1.57;;;;;;;18.86;94.71;100056.84;5012899;28;20169;-73
2021/07/27 05:41:03;;;;;;;2.30;2.10;;;;;;;18.90;93.04;100052.16;5012727;28;20200;-73
2021/07/27 05:43:29;;;;;;;2.33;2.17;;;;;;;18.95;93.39;100060.13;5012858;28;20354;-73
2021/07/27 05:45:57;;;;;;;1.47;1.37;;;;;;;18.93;92.49;100057.72;5012807;28;20172;-71
2021/07/27 05:48:22;;;;;;;1.67;1.57;;;;;;;18.86;92.36;100063.19;5012768;28;20222;-72
2021/07/27 05:50:47;;;;;;;2.33;2.13;;;;;;;18.84;93.37;100064.75;5012738;28;20176;-72
2021/07/27 05:53:13;;;;;;;2.00;1.90;;;;;;;18.86;93.99;100059.63;5012668;28;20435;-72
2021/07/27 05:55:38;;;;;;;1.90;1.80;;;;;;;18.85;93.71;100058.03;5012633;28;20176;-72
2021/07/27 05:58:03;;;;;;;4.23;2.17;;;;;;;18.83;94.54;100063.94;5027854;28;20180;-72
2021/07/27 06:00:29;;;;;;;1.93;1.83;;;;;;;18.83;94.07;100063.94;5012595;28;20180;-72
2021/07/27 06:02:54;;;;;;;1.73;1.63;;;;;;;18.75;93.54;100070.56;5012679;28;20247;-71
2021/07/27 06:05:19;;;;;;;2.40;2.20;;;;;;;18.72;94.36;100069.34;5008305;28;20175;-72
2021/07/27 06:07:45;;;;;;;2.37;2.17;;;;;;;18.75;94.42;100053.94;5004437;28;20184;-72
2021/07/27 06:10:10;;;;;;;1.70;1.60;;;;;;;18.76;93.73;100057.50;5001486;28;20179;-72
2021/07/27 06:12:37;;;;;;;2.47;2.27;;;;;;;18.73;93.89;100056.31;5003000;28;20176;-72
2021/07/27 06:15:05;;;;;;;2.07;1.87;;;;;;;18.79;94.40;100060.31;5010193;28;20199;-72
2021/07/27 06:17:30;;;;;;;6.90;1.57;;;;;;;18.85;94.28;100053.28;5012413;28;20569;-73
2021/07/27 06:19:55;;;;;;;2.60;2.40;;;;;;;18.93;94.02;100056.94;5012036;28;20192;-72
2021/07/27 06:22:21;;;;;;;2.13;1.93;;;;;;;18.95;93.27;100052.63;5007409;28;20259;-72
2021/07/27 06:24:46;;;;;;;2.60;2.40;;;;;;;19.08;92.98;100057.91;5005125;28;20263;-73
2021/07/27 06:27:11;;;;;;;3.07;2.60;;;;;;;19.05;93.04;100050.34;5011704;28;20562;-72
2021/07/27 06:29:36;;;;;;;2.30;2.10;;;;;;;19.03;93.05;100054.28;5011994;28;20192;-73
2021/07/27 06:32:02;;;;;;;2.67;2.47;;;;;;;19.05;93.54;100056.69;5011941;28;20181;-72
2021/07/27 06:34:27;;;;;;;2.57;2.37;;;;;;;19.07;93.36;100059.88;5011983;28;20180;-74
2021/07/27 06:36:53;;;;;;;2.60;2.10;;;;;;;19.08;93.25;100074.50;5011798;28;20185;-75
2021/07/27 06:39:18;;;;;;;2.17;2.03;;;;;;;19.09;93.01;100067.78;5012187;28;20246;-73
2021/07/27 06:41:44;;;;;;;1.63;1.53;;;;;;;19.03;92.57;100070.91;5011944;28;20211;-73
2021/07/27 06:44:09;;;;;;;2.03;1.83;;;;;;;19.03;92.28;100070.91;5011761;28;20242;-73
2021/07/27 06:46:35;;;;;;;1.90;1.80;;;;;;;19.05;92.16;100073.31;5011700;28;20204;-73
2021/07/27 06:49:00;;;;;;;3.23;2.93;;;;;;;19.09;91.99;100078.88;5011797;28;20179;-72
2021/07/27 06:51:26;;;;;;;2.87;2.60;;;;;;;19.14;91.86;100084.09;5011356;28;20176;-73
2021/07/27 06:53:51;;;;;;;3.47;2.33;;;;;;;19.14;92.95;100075.78;5010118;28;20184;-73
2021/07/27 06:56:17;;;;;;;2.87;2.67;;;;;;;19.21;93.31;100076.66;5011593;28;20173;-72
2021/07/27 06:58:43;;;;;;;2.47;2.27;;;;;;;19.30;92.36;100068.84;5011689;28;20621;-72
2021/07/27 07:01:10;;;;;;;2.03;1.93;;;;;;;19.32;92.02;100063.72;5011496;28;20255;-72
2021/07/27 07:03:43;;;;;;;2.13;1.93;;;;;;;19.28;91.45;100062.88;5011675;28;20212;-72
2021/07/27 07:06:11;;;;;;;2.73;2.53;;;;;;;19.42;93.67;100070.56;5011543;28;20177;-72
2021/07/27 07:08:36;;;;;;;3.03;2.33;;;;;;;19.60;90.80;100065.22;5011713;28;20680;-80
2021/07/27 07:11:04;;;;;;;3.80;2.00;;;;;;;19.77;91.10;100063.78;5011688;28;20177;-75
2021/07/27 07:13:31;;;;;;;2.70;2.33;;;;;;;19.89;89.39;100069.84;5011310;28;20172;-75
2021/07/27 07:15:57;;;;;;;4.17;3.87;;;;;;;19.84;87.20;100075.75;5008201;28;20275;-75
2021/07/27 07:18:22;;;;;;;2.83;2.63;;;;;;;19.80;87.52;100074.09;5011146;28;20256;-74
2021/07/27 07:20:51;;;;;;;5.17;3.43;;;;;;;19.85;88.40;100082.88;5011181;28;20211;-74
2021/07/27 07:23:16;;;;;;;3.23;3.03;;;;;;;19.97;87.90;100094.88;5005767;28;20299;-75
2021/07/27 07:25:46;;;;;;;1.83;1.47;;;;;;;19.89;87.13;100080.13;4999773;28;20233;-75
2021/07/27 07:28:12;;;;;;;4.33;4.03;;;;;;;19.73;86.81;100096.22;5001080;28;20176;-74
2021/07/27 07:30:38;;;;;;;2.97;2.67;;;;;;;19.71;87.17;100093.03;4996617;28;20181;-74
2021/07/27 07:33:03;;;;;;;3.23;3.00;;;;;;;19.67;87.52;100087.44;4990622;28;20177;-74
2021/07/27 07:35:29;;;;;;;3.47;3.17;;;;;;;19.67;88.24;100086.66;4990897;28;20181;-74
2021/07/27 07:37:54;;;;;;;2.37;2.17;;;;;;;19.66;87.85;100082.28;4990216;28;20174;-74
2021/07/27 07:40:20;;;;;;;3.17;2.93;;;;;;;19.72;88.03;100091.88;4990976;28;20181;-75
2021/07/27 07:42:46;;;;;;;3.30;3.10;;;;;;;19.95;87.70;100086.09;4990781;28;20216;-75
2021/07/27 07:45:11;;;;;;;3.00;2.80;;;;;;;20.12;86.36;100091.81;4990829;28;20200;-74
2021/07/27 07:47:37;;;;;;;3.93;3.63;;;;;;;20.26;86.12;100090.34;4990732;28;20181;-74
2021/07/27 07:50:02;;;;;;;3.70;3.40;;;;;;;20.31;84.87;100092.75;4990750;28;20442;-75
2021/07/27 07:52:28;;;;;;;2.83;2.07;;;;;;;20.39;84.10;100097.13;4990517;28;20538;-74
2021/07/27 07:54:53;;;;;;;1.17;1.10;;;;;;;20.48;83.44;100097.63;4990956;28;20204;-74
2021/07/27 07:57:18;;;;;;;3.03;2.83;;;;;;;20.42;84.02;100100.00;4993905;28;20239;-77
2021/07/27 07:59:44;;;;;;;2.87;2.67;;;;;;;20.41;83.63;100105.91;5006860;28;20633;-73
2021/07/27 08:02:09;;;;;;;3.23;2.93;;;;;;;20.40;83.81;100105.09;5007080;28;20811;-74
2021/07/27 08:04:35;;;;;;;2.23;2.03;;;;;;;20.27;83.66;100098.28;5010957;28;20190;-74
2021/07/27 08:07:01;;;;;;;2.40;2.20;;;;;;;20.21;84.63;100095.03;5009037;28;20658;-74
2021/07/27 08:09:26;;;;;;;3.73;3.43;;;;;;;20.34;83.24;100080.88;5010161;28;20273;-74
2021/07/27 08:11:51;;;;;;;3.40;2.10;;;;;;;20.57;82.21;100089.78;5008918;28;20208;-75
2021/07/27 08:14:17;;;;;;;2.10;1.93;;;;;;;20.59;81.25;100097.72;5010662;28;20211;-74
2021/07/27 08:16:42;;;;;;;1.70;1.60;;;;;;;20.64;82.06;100100.91;5010587;28;20188;-74
2021/07/27 08:19:07;;;;;;;4.20;2.33;;;;;;;20.55;79.45;100105.22;5010618;28;20173;-74
2021/07/27 08:21:32;;;;;;;2.43;2.27;;;;;;;20.43;81.18;100120.22;5025666;28;20204;-74
2021/07/27 08:23:58;;;;;;;2.90;2.70;;;;;;;20.65;81.49;100113.59;5010612;28;20247;-74
2021/07/27 08:26:23;;;;;;;2.73;2.53;;;;;;;20.83;81.37;100108.16;5010549;28;20180;-74
2021/07/27 08:28:49;;;;;;;2.40;2.20;;;;;;;20.88;80.36;100110.56;5010702;28;20177;-74
2021/07/27 08:31:14;;;;;;;2.90;2.70;;;;;;;20.89;78.01;100112.16;5009087;28;20185;-75
2021/07/27 08:33:41;;;;;;;2.67;2.47;;;;;;;20.86;76.98;100117.69;5010388;28;20227;-74
2021/07/27 08:36:07;;;;;;;2.37;2.17;;;;;;;20.82;76.66;100112.09;5010720;28;20636;-74
2021/07/27 08:38:34;;;;;;;2.50;2.30;;;;;;;21.05;79.48;100112.63;5010500;28;20179;-74
2021/07/27 08:41:00;;;;;;;2.03;1.73;;;;;;;21.02;77.02;100113.41;5010426;28;20192;-74
2021/07/27 08:43:25;;;;;;;2.50;2.30;;;;;;;21.31;78.35;100125.47;5010353;28;20177;-74
2021/07/27 08:45:51;;;;;;;3.57;3.27;;;;;;;21.30;78.53;100120.28;5010486;28;20537;-74
2021/07/27 08:48:17;;;;;;;3.00;2.77;;;;;;;21.44;77.72;100122.31;5010294;28;20181;-74
2021/07/27 08:50:44;;;;;;;2.37;2.13;;;;;;;21.34;77.58;100126.66;5013523;28;20566;-74
2021/07/27 08:53:09;;;;;;;2.20;1.83;;;;;;;21.01;77.41;100136.03;5013544;28;20207;-74
2021/07/27 08:55:35;;;;;;;3.77;3.30;;;;;;;21.01;79.21;100125.72;5011117;28;20647;-75
2021/07/27 08:58:00;;;;;;;3.03;2.83;;;;;;;21.18;79.86;100121.41;5011410;28;20268;-73
2021/07/27 09:00:27;;;;;;;3.30;3.10;;;;;;;21.31;79.05;100125.47;5013667;28;20259;-75
2021/07/27 09:02:53;;;;;;;2.90;2.57;;;;;;;21.26;90.67;100133.38;5013504;28;20211;-75
2021/07/27 09:05:20;;;;;;;3.47;3.20;;;;;;;21.03;81.38;100139.19;5013932;28;20537;-75
2021/07/27 09:07:46;;;;;;;1.70;1.60;;;;;;;21.01;77.42;100147.94;5013675;28;20176;-74
2021/07/27 09:10:12;;;;;;;4.90;4.27;;;;;;;21.21;77.72;100142.06;5008222;28;20193;-74
2021/07/27 09:12:37;;;;;;;3.90;2.70;;;;;;;21.34;75.36;100154.44;4999243;28;20192;-74
2021/07/27 09:15:04;;;;;;;2.63;2.43;;;;;;;21.22;75.69;100144.44;4993813;28;20189;-74
2021/07/27 09:17:30;;;;;;;2.40;2.30;;;;;;;21.30;77.17;100135.00;4993910;28;20651;-74
2021/07/27 09:19:56;;;;;;;2.30;2.10;;;;;;;21.42;76.32;100144.16;4993807;28;20174;-74
2021/07/27 09:22:21;;;;;;;1.60;1.50;;;;;;;21.34;75.74;100146.91;5007177;28;20204;-77
2021/07/27 09:24:46;;;;;;;3.30;2.63;;;;;;;21.32;76.36;100154.84;5013093;28;20215;-74
2021/07/27 09:27:13;;;;;;;2.10;2.00;;;;;;;21.55;77.32;100145.38;5013143;28;20648;-75
2021/07/27 09:29:44;;;;;;;3.63;2.70;;;;;;;21.59;76.41;100154.53;5012692;28;20257;-74
2021/07/27 09:32:16;;;;;;;2.77;2.57;;;;;;;21.55;74.59;100148.16;5009425;28;20300;-75
2021/07/27 09:34:41;;;;;;;2.70;2.50;;;;;;;21.39;75.14;100140.16;5012679;28;20231;-75
2021/07/27 09:37:08;;;;;;;3.73;3.43;;;;;;;21.44;76.91;100150.13;5009183;28;20184;-74
2021/07/27 09:39:35;;;;;;;2.83;1.87;;;;;;;21.49;74.44;100149.72;5014873;28;20181;-74
2021/07/27 09:42:07;;;;;;;3.63;3.33;;;;;;;21.45;73.99;100143.38;5012828;28;20208;-74
2021/07/27 09:44:33;;;;;;;3.60;3.37;;;;;;;21.62;75.37;100153.75;5011288;28;20176;-75
2021/07/27 09:47:01;;;;;;;3.37;3.07;;;;;;;21.84;73.29;100146.22;5011163;28;20189;-75
2021/07/27 09:49:27;;;;;;;1.43;1.33;;;;;;;21.88;72.89;100153.41;5008773;28;20189;-75
2021/07/27 09:51:53;;;;;;;2.23;2.03;;;;;;;21.88;73.10;100155.41;5012031;28;20187;-75
2021/07/27 09:54:23;;;;;;;1.93;1.83;;;;;;;21.61;73.87;100157.72;5011160;28;20238;-75
2021/07/27 09:56:53;;;;;;;3.70;3.40;;;;;;;21.43;75.91;100156.88;5012087;28;20196;-74
2021/07/27 09:59:21;;;;;;;3.67;3.37;;;;;;;21.43;75.55;100159.66;5012089;28;20247;-74
2021/07/27 10:02:05;;;;;;;3.47;3.17;;;;;;;21.35;75.73;100151.28;5011123;28;20246;-74
2021/07/27 10:04:37;;;;;;;3.80;3.60;;;;;;;21.42;76.25;100153.31;5011980;28;20173;-74
2021/07/27 10:07:05;;;;;;;3.77;3.47;;;;;;;21.52;74.95;100160.06;5011984;28;20199;-74
2021/07/27 10:09:32;;;;;;;3.43;3.13;;;;;;;21.47;74.56;100160.47;5011760;28;20256;-75
2021/07/27 10:12:09;;;;;;;3.57;3.27;;;;;;;21.47;76.75;100158.47;5011670;28;20196;-74
2021/07/27 10:14:42;;;;;;;4.17;3.87;;;;;;;21.39;75.38;100157.63;5011841;28;20176;-74
2021/07/27 10:17:09;;;;;;;4.23;3.83;;;;;;;21.44;76.02;100141.78;5011603;28;20176;-75
2021/07/27 10:19:50;;;;;;;3.30;2.93;;;;;;;21.64;74.53;100145.81;5011832;28;20176;-75
2021/07/27 10:22:17;;;;;;;3.70;3.40;;;;;;;21.81;74.18;100141.47;5011436;28;20200;-74
2021/07/27 10:24:47;;;;;;;2.73;2.53;;;;;;;22.03;73.64;100147.84;5010289;28;20172;-74
2021/07/27 10:27:21;;;;;;;4.00;3.50;;;;;;;22.13;73.18;100147.09;5010403;28;20175;-74
2021/07/27 10:29:47;;;;;;;3.53;3.33;;;;;;;22.15;71.99;100153.88;5004335;28;20523;-74
2021/07/27 10:32:21;;;;;;;3.30;3.03;;;;;;;22.34;72.26;100149.88;5011113;28;20537;-74
2021/07/27 10:34:47;;;;;;;3.90;3.30;;;;;;;22.58;72.88;100144.69;5012059;28;20164;-75
2021/07/27 10:37:14;;;;;;;3.23;3.03;;;;;;;22.65;71.39;100145.47;5011779;28;20181;-73
2021/07/27 10:39:57;;;;;;;2.20;2.03;;;;;;;22.66;71.87;100151.84;5011910;28;20664;-74
2021/07/27 10:42:24;;;;;;;3.20;3.00;;;;;;;22.62;69.81;100148.25;5011662;28;20669;-74
2021/07/27 10:44:52;;;;;;;3.53;3.23;;;;;;;22.71;69.40;100140.28;5011834;28;20182;-74
2021/07/27 10:47:22;;;;;;;2.50;2.30;;;;;;;22.63;68.49;100149.84;5011774;28;20168;-74
2021/07/27 10:50:08;;;;;;;2.40;2.20;;;;;;;22.54;69.28;100145.47;5011763;28;20628;-74
2021/07/27 10:52:34;;;;;;;3.17;2.87;;;;;;;22.41;68.62;100144.28;5011206;28;20217;-74
2021/07/27 10:55:00;;;;;;;4.00;3.70;;;;;;;22.33;67.94;100137.16;5011610;28;20173;-74
2021/07/27 10:57:36;;;;;;;3.17;2.63;;;;;;;22.27;69.05;100128.41;5011510;28;20179;-75
2021/07/27 11:00:05;;;;;;;3.93;3.20;;;;;;;22.26;68.26;100137.94;5011497;28;20208;-74
2021/07/27 11:02:31;;;;;;;3.13;2.83;;;;;;;22.21;69.09;100129.22;5011374;28;20246;-74
2021/07/27 11:04:56;;;;;;;3.67;3.40;;;;;;;22.32;68.36;100126.44;5011463;28;20205;-74
2021/07/27 11:07:22;;;;;;;3.87;3.07;;;;;;;22.55;69.15;100121.22;5009600;28;20208;-74
2021/07/27 11:09:56;;;;;;;4.37;3.97;;;;;;;22.95;66.94;100124.72;5011280;28;20180;-74
2021/07/27 11:12:38;;;;;;;3.23;2.93;;;;;;;23.30;66.72;100132.16;5011166;28;20710;-74
2021/07/27 11:15:05;;;;;;;4.03;3.73;;;;;;;23.24;63.67;100126.19;5010630;28;20194;-74
2021/07/27 11:17:30;;;;;;;4.67;3.17;;;;;;;23.40;63.90;100118.16;5011312;28;20180;-74
2021/07/27 11:19:58;;;;;;;1.47;1.37;;;;;;;23.71;66.04;100126.78;5011343;28;20179;-74
2021/07/27 11:22:23;;;;;;;3.43;3.23;;;;;;;24.06;67.24;100124.94;5010930;28;20258;-74
2021/07/27 11:24:49;;;;;;;3.67;3.47;;;;;;;24.07;62.31;100118.16;5011010;28;20579;-74
2021/07/27 11:27:15;;;;;;;2.00;1.80;;;;;;;23.98;63.21;100118.59;5010565;28;20188;-74
2021/07/27 11:29:41;;;;;;;5.43;3.60;;;;;;;24.10;62.99;100114.53;5010601;28;20536;-74
2021/07/27 11:32:15;;;;;;;3.23;3.03;;;;;;;24.41;63.14;100109.91;5010462;28;20187;-74
2021/07/27 11:34:40;;;;;;;3.47;3.27;;;;;;;24.49;60.88;100117.81;5010565;28;20186;-74
2021/07/27 11:37:06;;;;;;;4.60;3.00;;;;;;;24.29;62.84;100116.75;5010295;28;20177;-74
2021/07/27 11:39:40;;;;;;;3.17;2.53;;;;;;;23.85;61.52;100125.88;5010588;28;20180;-74
2021/07/27 11:42:06;;;;;;;3.67;3.33;;;;;;;23.68;60.59;100114.44;5010221;28;20629;-74
2021/07/27 11:44:31;;;;;;;2.90;2.70;;;;;;;23.92;63.13;100109.09;5010319;28;20204;-74
2021/07/27 11:46:57;;;;;;;3.90;3.50;;;;;;;24.30;63.03;100108.03;5010492;28;20231;-74
2021/07/27 11:49:25;;;;;;;3.70;3.30;;;;;;;24.38;61.10;100105.16;5010263;28;20533;-74